createdAt,value
2022-10-11T00:00:06.979Z,9.10
2022-10-11T00:02:33.334Z,8.55
2022-10-11T00:04:59.693Z,8.68
2022-10-11T00:07:26.741Z,7.00
2022-10-11T00:09:53.067Z,7.95
2022-10-11T00:12:19.414Z,7.28
2022-10-11T00:14:45.835Z,6.88
2022-10-11T00:17:21.265Z,6.78
2022-10-11T00:19:47.720Z,7.82
2022-10-11T00:22:14.176Z,7.05
2022-10-11T00:24:40.545Z,7.82
2022-10-11T00:27:07.256Z,6.65
2022-10-11T00:29:33.710Z,8.10
2022-10-11T00:32:00.091Z,8.35
2022-10-11T00:34:26.410Z,8.07
2022-10-11T00:36:52.768Z,7.35
2022-10-11T00:39:19.105Z,8.18
2022-10-11T00:41:46.647Z,7.13
2022-10-11T00:44:23.447Z,7.53
2022-10-11T00:46:57.781Z,7.80
2022-10-11T00:49:36.961Z,7.18
2022-10-11T00:52:06.017Z,6.05
2022-10-11T00:54:37.842Z,6.57
2022-10-11T00:57:07.990Z,6.28
2022-10-11T00:59:42.648Z,7.15
2022-10-11T01:02:10.192Z,6.32
2022-10-11T01:04:37.067Z,6.38
2022-10-11T01:07:03.596Z,7.38
2022-10-11T01:09:33.057Z,5.65
2022-10-11T01:12:02.705Z,6.50
2022-10-11T01:14:49.992Z,6.65
2022-10-11T01:17:31.552Z,5.68
2022-10-11T01:20:40.629Z,5.85
2022-10-11T01:23:34.779Z,5.75
2022-10-11T01:26:38.484Z,5.95
2022-10-11T01:29:25.677Z,6.55
2022-10-11T01:32:03.676Z,5.72
2022-10-11T01:34:41.411Z,5.93
2022-10-11T01:37:19.154Z,5.10
2022-10-11T01:40:14.013Z,6.35
2022-10-11T01:42:41.680Z,5.97
2022-10-11T01:45:10.672Z,6.15
2022-10-11T01:47:39.206Z,5.20
2022-10-11T01:50:08.036Z,6.47
2022-10-11T01:52:42.154Z,5.35
2022-10-11T01:55:35.904Z,5.15
2022-10-11T01:58:53.048Z,5.78
2022-10-11T02:01:33.488Z,5.88
2022-10-11T02:04:24.739Z,4.68
2022-10-11T02:07:00.702Z,4.93
2022-10-11T02:09:44.958Z,4.72
2022-10-11T02:12:20.644Z,4.90
2022-10-11T02:14:51.082Z,5.53
2022-10-11T02:17:21.799Z,4.38
2022-10-11T02:19:52.139Z,4.32
2022-10-11T02:22:26.446Z,5.18
2022-10-11T02:24:57.749Z,4.70
2022-10-11T02:27:27.676Z,5.07
2022-10-11T02:29:56.735Z,5.05
2022-10-11T02:32:26.329Z,4.07
2022-10-11T02:34:55.802Z,4.47
2022-10-11T02:37:50.128Z,4.38
2022-10-11T02:40:33.452Z,4.65
2022-10-11T02:43:07.661Z,4.95
2022-10-11T02:46:07.653Z,4.45
2022-10-11T02:48:35.623Z,4.65
2022-10-11T02:51:03.544Z,4.50
2022-10-11T02:53:29.986Z,4.03
2022-10-11T02:55:56.468Z,3.78
2022-10-11T02:58:23.993Z,4.53
2022-10-11T03:00:50.445Z,3.83
2022-10-11T03:03:19.545Z,4.45
2022-10-11T03:05:46.073Z,5.22
2022-10-11T03:08:14.433Z,3.67
2022-10-11T03:10:41.246Z,4.13
2022-10-11T03:13:07.622Z,5.07
2022-10-11T03:15:34.099Z,3.35
2022-10-11T03:18:00.567Z,3.40
2022-10-11T03:20:27.061Z,3.47
2022-10-11T03:22:53.399Z,2.90
2022-10-11T03:25:19.745Z,3.38
2022-10-11T03:27:47.104Z,3.33
2022-10-11T03:30:17.912Z,4.10
2022-10-11T03:32:44.560Z,3.05
2022-10-11T03:35:10.892Z,2.90
2022-10-11T03:37:37.483Z,3.75
2022-10-11T03:40:05.773Z,3.58
2022-10-11T03:42:33.345Z,2.75
2022-10-11T03:45:01.665Z,3.80
2022-10-11T03:47:27.974Z,3.72
2022-10-11T03:49:56.402Z,2.75
2022-10-11T03:52:23.047Z,3.40
2022-10-11T03:54:49.343Z,3.00
2022-10-11T03:57:15.687Z,3.80
2022-10-11T03:59:42.221Z,2.85
2022-10-11T04:02:08.658Z,3.13
2022-10-11T04:04:35.080Z,3.95
2022-10-11T04:07:01.420Z,3.35
2022-10-11T04:09:27.922Z,3.42
2022-10-11T04:11:54.248Z,2.85
2022-10-11T04:14:20.568Z,3.45
2022-10-11T04:16:49.972Z,3.13
2022-10-11T04:19:16.543Z,2.22
2022-10-11T04:21:44.043Z,3.13
2022-10-11T04:24:13.297Z,3.85
2022-10-11T04:26:39.813Z,3.00
2022-10-11T04:29:06.312Z,2.33
2022-10-11T04:31:32.651Z,3.17
2022-10-11T04:33:59.088Z,2.55
2022-10-11T04:36:25.560Z,2.85
2022-10-11T04:38:51.940Z,3.10
2022-10-11T04:41:18.287Z,3.92
2022-10-11T04:43:44.675Z,2.38
2022-10-11T04:46:11.503Z,2.70
2022-10-11T04:48:38.144Z,2.88
2022-10-11T04:51:05.296Z,3.28
2022-10-11T04:53:33.788Z,2.85
2022-10-11T04:56:03.838Z,2.90
2022-10-11T04:58:32.321Z,2.25
2022-10-11T05:00:58.723Z,3.10
2022-10-11T05:03:26.114Z,3.10
2022-10-11T05:05:53.126Z,3.00
2022-10-11T05:08:20.482Z,4.07
2022-10-11T05:11:15.535Z,2.67
2022-10-11T05:13:43.567Z,3.15
2022-10-11T05:16:11.312Z,3.45
2022-10-11T05:18:39.188Z,3.78
2022-10-11T05:21:09.000Z,3.42
2022-10-11T05:23:36.928Z,3.63
2022-10-11T05:26:04.162Z,3.17
2022-10-11T05:28:33.623Z,4.88
2022-10-11T05:31:00.021Z,5.57
2022-10-11T05:33:26.714Z,5.03
2022-10-11T05:35:53.724Z,3.63
2022-10-11T05:38:20.130Z,3.13
2022-10-11T05:40:46.562Z,2.90
2022-10-11T05:43:12.960Z,3.25
2022-10-11T05:45:41.618Z,3.35
2022-10-11T05:48:09.494Z,3.95
2022-10-11T05:50:40.540Z,3.50
2022-10-11T05:53:07.241Z,3.45
2022-10-11T05:55:41.548Z,3.30
2022-10-11T05:58:11.661Z,2.92
2022-10-11T06:00:39.817Z,2.80
2022-10-11T06:03:07.864Z,3.42
2022-10-11T06:05:35.176Z,2.72
2022-10-11T06:08:02.501Z,3.85
2022-10-11T06:10:29.453Z,3.97
2022-10-11T06:12:56.003Z,3.63
2022-10-11T06:15:22.581Z,3.42
2022-10-11T06:17:49.072Z,4.72
2022-10-11T06:20:15.701Z,3.47
2022-10-11T06:22:42.595Z,4.18
2022-10-11T06:25:09.331Z,4.10
2022-10-11T06:27:35.902Z,5.25
2022-10-11T06:30:04.125Z,4.25
2022-10-11T06:32:31.413Z,3.97
2022-10-11T06:34:59.186Z,4.15
2022-10-11T06:37:25.505Z,4.18
2022-10-11T06:39:51.842Z,4.70
2022-10-11T06:42:18.272Z,5.22
2022-10-11T06:44:49.600Z,4.78
2022-10-11T06:47:15.940Z,4.55
2022-10-11T06:49:44.786Z,5.28
2022-10-11T06:52:11.151Z,4.43
2022-10-11T06:54:41.227Z,4.18
2022-10-11T06:57:10.650Z,4.93
2022-10-11T06:59:37.238Z,4.43
2022-10-11T07:02:05.191Z,4.80
2022-10-11T07:04:33.851Z,4.53
2022-10-11T07:07:00.332Z,3.85
2022-10-11T07:09:26.673Z,3.25
2022-10-11T07:11:54.174Z,3.72
2022-10-11T07:14:22.554Z,3.70
2022-10-11T07:16:48.896Z,3.53
2022-10-11T07:19:15.377Z,4.32
2022-10-11T07:21:54.613Z,3.70
2022-10-11T07:24:21.280Z,4.30
2022-10-11T07:26:47.735Z,3.33
2022-10-11T07:29:16.494Z,3.70
2022-10-11T07:31:43.550Z,3.25
2022-10-11T07:34:10.715Z,4.80
2022-10-11T07:36:37.654Z,4.32
2022-10-11T07:39:06.114Z,3.95
2022-10-11T07:41:32.728Z,4.80
2022-10-11T07:44:02.073Z,3.75
2022-10-11T07:46:28.505Z,4.18
2022-10-11T07:48:58.089Z,4.15
2022-10-11T07:51:25.366Z,4.47
2022-10-11T07:53:55.528Z,4.10
2022-10-11T07:56:27.362Z,4.72
2022-10-11T07:58:58.525Z,4.25
2022-10-11T08:01:26.616Z,3.45
2022-10-11T08:03:53.795Z,5.03
2022-10-11T08:06:22.980Z,4.43
2022-10-11T08:08:49.995Z,3.58
2022-10-11T08:11:26.611Z,3.30
2022-10-11T08:13:53.879Z,3.35
2022-10-11T08:16:20.917Z,4.43
2022-10-11T08:18:47.401Z,3.78
2022-10-11T08:21:16.273Z,3.72
2022-10-11T08:23:42.828Z,4.30
2022-10-11T08:26:09.783Z,4.38
2022-10-11T08:28:36.750Z,3.70
2022-10-11T08:31:03.489Z,4.25
2022-10-11T08:33:30.906Z,3.10
2022-10-11T08:35:57.469Z,2.92
2022-10-11T08:38:24.487Z,3.92
2022-10-11T08:40:57.293Z,2.60
2022-10-11T08:44:06.768Z,3.00
2022-10-11T08:46:39.099Z,3.13
2022-10-11T08:49:07.401Z,3.42
2022-10-11T08:51:44.462Z,3.42
2022-10-11T08:54:33.212Z,4.05
2022-10-11T08:57:03.801Z,2.38
2022-10-11T08:59:46.447Z,2.72
2022-10-11T09:02:55.494Z,4.18
2022-10-11T09:05:20.523Z,2.55
2022-10-11T09:08:11.406Z,3.55
2022-10-11T09:10:47.574Z,3.20
2022-10-11T09:13:42.657Z,2.30
2022-10-11T09:16:19.442Z,3.25
2022-10-11T09:19:13.515Z,3.22
2022-10-11T09:21:59.789Z,3.15
2022-10-11T09:24:30.616Z,4.22
2022-10-11T09:27:01.416Z,3.15
2022-10-11T09:30:06.949Z,3.47
2022-10-11T09:32:39.659Z,3.20
2022-10-11T09:35:24.363Z,3.38
2022-10-11T09:38:05.948Z,3.80
2022-10-11T09:41:01.593Z,2.28
2022-10-11T09:44:17.059Z,2.78
2022-10-11T09:46:47.552Z,2.72
2022-10-11T09:49:16.321Z,3.28
2022-10-11T09:51:58.005Z,2.88
2022-10-11T09:54:41.448Z,2.85
2022-10-11T09:57:19.983Z,2.95
2022-10-11T10:00:18.866Z,2.53
2022-10-11T10:02:49.309Z,3.22
2022-10-11T10:05:42.844Z,2.90
2022-10-11T10:08:09.278Z,2.53
2022-10-11T10:10:48.889Z,3.03
2022-10-11T10:13:20.930Z,3.40
2022-10-11T10:15:51.005Z,2.35
2022-10-11T10:18:26.867Z,3.22
2022-10-11T10:20:56.686Z,2.70
2022-10-11T10:23:31.713Z,2.67
2022-10-11T10:26:16.615Z,3.85
2022-10-11T10:29:15.762Z,1.95
2022-10-11T10:32:12.813Z,2.53
2022-10-11T10:34:51.145Z,2.72
2022-10-11T10:40:09.882Z,2.30
2022-10-11T10:42:37.183Z,2.47
2022-10-11T10:45:22.139Z,2.28
2022-10-11T10:49:01.774Z,2.47
2022-10-11T10:52:06.656Z,2.42
2022-10-11T10:54:38.993Z,2.45
2022-10-11T10:57:28.024Z,2.00
2022-10-11T11:00:32.752Z,1.63
2022-10-11T11:03:22.970Z,2.60
2022-10-11T11:06:04.534Z,2.65
2022-10-11T11:08:50.168Z,2.80
2022-10-11T11:11:16.431Z,2.83
2022-10-11T11:14:06.508Z,2.88
2022-10-11T11:16:44.935Z,2.28
2022-10-11T11:19:26.404Z,2.22
2022-10-11T11:22:32.896Z,2.35
2022-10-11T11:25:21.995Z,2.85
2022-10-11T11:28:05.281Z,2.90
2022-10-11T11:31:02.449Z,2.22
2022-10-11T11:33:58.810Z,2.92
2022-10-11T11:36:37.351Z,3.10
2022-10-11T11:39:12.317Z,2.65
2022-10-11T11:41:48.413Z,2.92
2022-10-11T11:47:28.073Z,1.88
2022-10-11T11:50:04.770Z,2.00
2022-10-11T11:52:46.593Z,3.28
2022-10-11T11:55:38.713Z,2.10
2022-10-11T11:58:17.935Z,2.08
2022-10-11T12:01:13.481Z,2.83
2022-10-11T12:03:44.573Z,2.45
2022-10-11T12:06:14.985Z,2.60
2022-10-11T12:08:54.027Z,2.50
2022-10-11T12:11:35.384Z,2.60
2022-10-11T12:14:28.355Z,4.13
2022-10-11T12:17:22.717Z,2.28
2022-10-11T12:20:20.726Z,2.50
2022-10-11T12:23:01.630Z,3.17
2022-10-11T12:25:28.715Z,2.63
2022-10-11T12:28:01.638Z,2.83
2022-10-11T12:30:56.069Z,2.83
2022-10-11T12:33:25.406Z,2.55
2022-10-11T12:35:54.741Z,2.80
2022-10-11T12:38:28.666Z,2.42
2022-10-11T12:41:00.620Z,2.53
2022-10-11T12:43:33.571Z,2.60
2022-10-11T12:46:33.840Z,2.38
2022-10-11T12:49:24.840Z,2.65
2022-10-11T12:51:51.162Z,3.20
2022-10-11T12:54:54.416Z,3.33
2022-10-11T12:57:26.783Z,2.60
2022-10-11T12:59:53.428Z,2.78
2022-10-11T13:02:40.139Z,2.53
2022-10-11T13:05:24.820Z,2.30
2022-10-11T13:07:54.476Z,2.58
2022-10-11T13:10:38.902Z,2.70
2022-10-11T13:13:16.320Z,2.67
2022-10-11T13:16:02.073Z,3.13
2022-10-11T13:18:28.638Z,3.35
2022-10-11T13:20:59.871Z,2.72
2022-10-11T13:23:37.537Z,2.58
2022-10-11T13:26:09.130Z,2.90
2022-10-11T13:28:36.731Z,2.40
2022-10-11T13:31:09.510Z,3.47
2022-10-11T13:33:46.891Z,3.55
2022-10-11T13:36:19.899Z,2.55
2022-10-11T13:38:58.567Z,3.35
2022-10-11T13:41:31.246Z,2.08
2022-10-11T13:43:59.946Z,2.33
2022-10-11T13:46:30.696Z,1.88
2022-10-11T13:49:05.096Z,3.22
2022-10-11T13:51:42.602Z,2.17
2022-10-11T13:54:13.622Z,2.25
2022-10-11T13:56:43.138Z,2.38
2022-10-11T13:59:36.246Z,2.75
2022-10-11T14:02:04.301Z,2.58
2022-10-11T14:04:40.648Z,2.17
2022-10-11T14:07:38.201Z,2.17
2022-10-11T14:10:08.986Z,2.38
2022-10-11T14:12:44.343Z,2.80
2022-10-11T14:15:24.267Z,11.57
2022-10-11T14:17:51.459Z,7.03
2022-10-11T14:20:22.698Z,3.22
2022-10-11T14:22:53.387Z,2.45
2022-10-11T14:25:22.817Z,2.75
2022-10-11T14:27:49.573Z,2.80
2022-10-11T14:30:27.628Z,3.08
2022-10-11T14:32:57.668Z,2.53
2022-10-11T14:35:32.137Z,2.17
2022-10-11T14:38:00.416Z,2.30
2022-10-11T14:40:30.012Z,2.25
2022-10-11T14:42:59.434Z,2.75
2022-10-11T14:45:27.292Z,2.35
2022-10-11T14:47:55.455Z,2.88
2022-10-11T14:50:30.899Z,2.40
2022-10-11T14:52:58.219Z,2.72
2022-10-11T14:55:25.103Z,2.50
2022-10-11T14:57:51.679Z,2.20
2022-10-11T15:00:24.373Z,2.67
2022-10-11T15:02:52.865Z,2.28
2022-10-11T15:05:20.523Z,3.45
2022-10-11T15:07:47.272Z,2.50
2022-10-11T15:10:22.400Z,2.45
2022-10-11T15:12:50.717Z,1.65
2022-10-11T15:15:23.062Z,2.45
2022-10-11T15:17:55.087Z,2.40
2022-10-11T15:20:33.490Z,4.47
2022-10-11T15:23:01.606Z,3.65
2022-10-11T15:25:28.986Z,2.42
2022-10-11T15:27:56.632Z,2.30
2022-10-11T15:30:30.061Z,2.63
2022-10-11T15:32:59.755Z,3.40
2022-10-11T15:35:34.179Z,3.22
2022-10-11T15:38:00.615Z,1.90
2022-10-11T15:40:30.171Z,2.38
2022-10-11T15:42:56.925Z,2.42
2022-10-11T15:45:23.891Z,2.70
2022-10-11T15:47:50.867Z,2.28
2022-10-11T15:50:35.181Z,2.53
2022-10-11T15:53:13.442Z,2.00
2022-10-11T15:55:43.631Z,2.50
2022-10-11T15:58:15.457Z,3.78
2022-10-11T16:03:11.650Z,3.55
2022-10-11T16:05:38.392Z,4.75
2022-10-11T16:08:04.943Z,5.55
2022-10-11T16:10:38.043Z,5.78
2022-10-11T16:13:05.208Z,3.85
2022-10-11T16:15:31.936Z,3.60
2022-10-11T16:17:58.671Z,4.78
2022-10-11T16:20:26.701Z,6.18
2022-10-11T16:22:54.400Z,5.47
2022-10-11T16:25:22.058Z,5.03
2022-10-11T16:27:49.013Z,5.82
2022-10-11T16:30:16.790Z,3.50
2022-10-11T16:32:44.347Z,7.13
2022-10-11T16:35:12.968Z,15.85
2022-10-11T16:37:40.025Z,14.32
2022-10-11T16:40:08.289Z,17.95
2022-10-11T16:42:35.572Z,12.95
2022-10-11T16:45:01.907Z,7.90
2022-10-11T16:47:28.266Z,6.50
2022-10-11T16:49:54.837Z,5.65
2022-10-11T16:52:21.410Z,4.57
2022-10-11T16:54:57.679Z,116.72
2022-10-11T16:57:27.924Z,48.28
2022-10-11T16:59:54.665Z,116.63
2022-10-11T17:02:31.384Z,95.50
2022-10-11T17:05:02.577Z,39.40
2022-10-11T17:07:32.317Z,12.55
2022-10-11T17:10:00.993Z,6.55
2022-10-11T17:12:31.980Z,6.40
2022-10-11T17:14:58.540Z,6.38
2022-10-11T17:17:24.982Z,8.75
2022-10-11T17:19:51.318Z,8.55
2022-10-11T17:22:20.443Z,10.48
2022-10-11T17:24:46.956Z,11.98
2022-10-11T17:27:13.587Z,13.43
2022-10-11T17:29:40.103Z,18.20
2022-10-11T17:32:06.611Z,19.60
2022-10-11T17:34:33.294Z,18.58
2022-10-11T17:37:04.803Z,13.63
2022-10-11T17:39:32.704Z,11.98
2022-10-11T17:42:04.826Z,15.45
2022-10-11T17:44:31.307Z,17.95
2022-10-11T17:46:57.705Z,17.88
2022-10-11T17:49:24.076Z,21.27
2022-10-11T17:51:50.433Z,33.25
2022-10-11T17:54:16.824Z,39.22
2022-10-11T17:56:43.260Z,40.97
2022-10-11T17:59:16.168Z,38.00
2022-10-11T18:01:43.307Z,21.63
2022-10-11T18:04:16.544Z,20.15
2022-10-11T18:06:45.088Z,16.20
2022-10-11T18:09:13.012Z,15.23
2022-10-11T18:11:39.624Z,13.38
2022-10-11T18:14:06.278Z,14.10
2022-10-11T18:16:33.095Z,15.45
2022-10-11T18:19:01.712Z,18.55
2022-10-11T18:21:34.018Z,13.05
2022-10-11T18:24:03.510Z,16.77
2022-10-11T18:26:30.888Z,28.23
2022-10-11T18:28:58.906Z,40.42
2022-10-11T18:31:27.592Z,20.25
2022-10-11T18:33:54.737Z,20.15
2022-10-11T18:36:24.332Z,32.00
2022-10-11T18:38:57.993Z,33.35
2022-10-11T18:41:30.553Z,30.85
2022-10-11T18:44:00.520Z,20.88
2022-10-11T18:46:27.749Z,18.85
2022-10-11T18:48:56.702Z,19.73
2022-10-11T18:51:28.979Z,19.30
2022-10-11T18:53:58.598Z,19.73
2022-10-11T18:56:26.822Z,21.58
2022-10-11T18:58:54.809Z,17.88
2022-10-11T19:01:29.973Z,16.65
2022-10-11T19:03:58.145Z,17.05
2022-10-11T19:06:36.995Z,14.48
2022-10-11T19:09:07.091Z,12.80
2022-10-11T19:11:33.713Z,14.23
2022-10-11T19:14:01.935Z,13.30
2022-10-11T19:16:32.695Z,13.00
2022-10-11T19:18:59.814Z,12.38
2022-10-11T19:21:26.558Z,14.55
2022-10-11T19:23:55.396Z,19.20
2022-10-11T19:26:26.231Z,18.00
2022-10-11T19:28:59.137Z,18.10
2022-10-11T19:31:26.554Z,21.48
2022-10-11T19:33:53.724Z,16.25
2022-10-11T19:36:20.363Z,12.75
2022-10-11T19:38:49.306Z,10.60
2022-10-11T19:41:20.522Z,10.07
2022-10-11T19:43:46.948Z,8.65
2022-10-11T19:46:20.272Z,8.15
2022-10-11T19:48:53.067Z,8.40
2022-10-11T19:51:27.498Z,10.95
2022-10-11T19:54:00.803Z,10.68
2022-10-11T19:56:29.658Z,24.50
2022-10-11T19:58:56.107Z,19.00
2022-10-11T20:01:25.372Z,26.33
2022-10-11T20:03:54.557Z,26.67
2022-10-11T20:06:22.705Z,19.77
2022-10-11T20:09:10.315Z,14.05
2022-10-11T20:11:39.247Z,11.70
2022-10-11T20:14:06.115Z,14.05
2022-10-11T20:16:32.653Z,13.68
2022-10-11T20:18:59.322Z,14.55
2022-10-11T20:21:28.732Z,21.55
2022-10-11T20:24:00.905Z,30.55
2022-10-11T20:28:56.155Z,21.38
2022-10-11T20:31:28.738Z,18.42
2022-10-11T20:33:57.403Z,12.63
2022-10-11T20:36:25.253Z,11.68
2022-10-11T20:38:52.227Z,11.95
2022-10-11T20:41:22.029Z,12.90
2022-10-11T20:43:50.360Z,11.38
2022-10-11T20:46:19.592Z,10.43
2022-10-11T20:49:01.578Z,10.00
2022-10-11T20:51:30.776Z,11.25
2022-10-11T20:53:58.438Z,9.13
2022-10-11T20:56:24.962Z,7.88
2022-10-11T20:58:54.725Z,9.02
2022-10-11T21:01:26.109Z,6.90
2022-10-11T21:03:52.864Z,8.20
2022-10-11T21:06:19.459Z,7.57
2022-10-11T21:08:45.804Z,8.75
2022-10-11T21:11:12.171Z,7.38
2022-10-11T21:13:38.527Z,6.80
2022-10-11T21:16:11.999Z,7.47
2022-10-11T21:18:38.798Z,6.25
2022-10-11T21:21:10.737Z,7.28
2022-10-11T21:23:37.167Z,7.47
2022-10-11T21:26:05.808Z,5.20
2022-10-11T21:28:32.986Z,6.25
2022-10-11T21:31:04.523Z,5.45
2022-10-11T21:33:30.894Z,5.93
2022-10-11T21:35:57.543Z,4.78
2022-10-11T21:38:26.911Z,4.30
2022-10-11T21:40:53.536Z,4.30
2022-10-11T21:43:20.047Z,4.65
2022-10-11T21:45:46.389Z,4.95
2022-10-11T21:48:12.772Z,6.38
2022-10-11T21:50:39.241Z,4.97
2022-10-11T21:53:05.549Z,4.60
2022-10-11T21:55:31.921Z,5.35
2022-10-11T21:57:58.450Z,4.15
2022-10-11T22:00:24.765Z,4.80
2022-10-11T22:02:53.415Z,3.97
2022-10-11T22:05:19.825Z,4.07
2022-10-11T22:07:48.834Z,4.20
2022-10-11T22:10:15.207Z,3.35
2022-10-11T22:12:41.550Z,4.00
2022-10-11T22:15:08.495Z,3.75
2022-10-11T22:17:34.807Z,3.97
2022-10-11T22:20:01.473Z,3.13
2022-10-11T22:22:27.813Z,3.92
2022-10-11T22:24:54.694Z,3.55
2022-10-11T22:27:21.530Z,4.53
2022-10-11T22:29:48.128Z,4.60
2022-10-11T22:32:14.462Z,4.38
2022-10-11T22:34:40.793Z,4.53
2022-10-11T22:37:09.914Z,4.47
2022-10-11T22:39:36.628Z,4.25
2022-10-11T22:42:03.040Z,3.83
2022-10-11T22:44:29.337Z,4.03
2022-10-11T22:46:55.766Z,3.55
2022-10-11T22:49:22.534Z,4.13
2022-10-11T22:51:49.576Z,4.00
2022-10-11T22:54:15.906Z,4.80
2022-10-11T22:56:42.467Z,4.47
2022-10-11T22:59:09.682Z,5.45
2022-10-11T23:01:36.135Z,5.13
2022-10-11T23:04:02.559Z,5.47
2022-10-11T23:06:29.434Z,5.15
2022-10-11T23:08:55.995Z,4.60
2022-10-11T23:11:25.077Z,6.00
2022-10-11T23:13:51.713Z,5.78
2022-10-11T23:16:18.016Z,4.88
2022-10-11T23:18:44.530Z,5.90
2022-10-11T23:21:23.006Z,5.65
2022-10-11T23:23:53.629Z,5.53
2022-10-11T23:26:20.505Z,6.35
2022-10-11T23:28:47.351Z,6.97
2022-10-11T23:31:16.652Z,6.60
2022-10-11T23:33:47.388Z,6.22
2022-10-11T23:36:24.999Z,6.97
2022-10-11T23:38:56.223Z,5.88
2022-10-11T23:41:25.373Z,6.20
2022-10-11T23:43:52.124Z,6.15
2022-10-11T23:46:19.029Z,5.90
2022-10-11T23:48:45.666Z,5.60
2022-10-11T23:51:13.385Z,6.07
2022-10-11T23:53:39.830Z,6.32
2022-10-11T23:56:06.802Z,5.75
2022-10-11T23:58:33.504Z,5.05
